To NAV CANADA Home Page Login to a new session Search on AWWS site Feedback and Comments Disclaimer Vers la page française équivalente Tips FAQ What's new on the site To the Forecasts and Observations / NOTAM section To "File a Flight Plan" website Publications and other links Update of the User's profile FIC Telephone Numbers My Weather Data Folder Route Weather Data Regional Weather Data Local Weather Data To the Forecasts and Observations / NOTAM section
Request Generated 09/03/2015 at 08:47:11 UTC . Weather information available at that time is displayed.

METAR/TAF

HAVRE ST-PIERRE/QC    (show WxCam)

SPECI CYGV 030820Z AUTO 28005KT 8SM FEW001 OVC075 11/11 A2963 RMK
SLP033=
SPECI CYGV 030818Z AUTO 28004KT 3SM BR FEW001 OVC075 11/11 A2962 RMK
SLP032=
SPECI CYGV 030817Z AUTO 28004KT 2 1/4SM BR SCT001 OVC075 10/10 A2962
RMK SLP032=
SPECI CYGV 030815Z AUTO 28004KT 1 1/4SM BR SCT001 OVC075 10/10 A2962
RMK SLP031=
SPECI CYGV 030811Z AUTO 27004KT 1/2SM FG SCT001 OVC075 10/10 A2962
RMK SLP031=
SPECI CYGV 030801Z AUTO 27005KT 1/2SM FG BKN001 OVC080 10/10 A2962
RMK SLP030=
METAR CYGV 030800Z AUTO 27005KT 1/2SM FG SCT001 OVC075 10/10 A2962
RMK SLP030=
SPECI CYGV 030757Z AUTO 26005KT 1/2SM FG SCT001 OVC075 11/11 A2961
RMK SLP029=
METAR CYGV 030700Z AUTO 29007KT 1/8SM FG VV001 12/12 A2961 RMK
SLP026=
METAR CYGV 030600Z AUTO 32004KT 280V350 1/4SM FG VV002 14/14 A2960
RMK SLP025 DENSITY ALT 300FT=

TAF CYGV 030738Z 0308/0320 29007KT 1/8SM FG VV001
BECMG 0308/0310 6SM BR FEW002
FM031000 33012KT P6SM FEW050
BECMG 0312/0314 31012G22KT
FM031600 34013G23KT P6SM BKN040
RMK FCST BASED ON AUTO OBS. NXT FCST BY 031400Z=
Your time UTC time
Weather data provided by Environment Canada and NAV CANADA